Time;durP1;ratioP1;P1;durP2;ratioP2;P2;SDS_P1;SDS_P2;PMS_P1;PMS_P2;Temp;Humidity;BMP_temperature;BMP_pressure;BME280_temperature;BME280_humidity;BME280_pressure;Samples;Min_cycle;Max_cycle;Signal;HPM_P1;HPM_P2
2022/11/26 00:02:33;;;;;;;;;;;;;;;5.07;83.13;101256.31;5365294;32;35327;-62
2022/11/26 00:05:35;;;;;;;;;;;;;;;5.40;79.83;101247.53;5356548;32;35706;-63
2022/11/26 00:08:37;;;;;;;;;;;;;;;4.45;83.45;101265.13;5340313;32;35405;-62
2022/11/26 00:11:39;;;;;;;;;;;;;;;4.73;83.02;101260.75;5332624;32;35580;-73
2022/11/26 00:14:41;;;;;;;;;;;;;;;5.27;82.79;101268.44;5348068;32;34778;-65
2022/11/26 00:17:43;;;;;;;;;;;;;;;5.82;78.63;101262.97;5346248;32;34678;-74
2022/11/26 00:20:53;;;;;;;;;;;;;;;4.92;81.79;101266.81;5326425;32;34929;-63
2022/11/26 00:23:55;;;;;;;;;;;;;;;4.87;82.36;101266.78;5331962;32;35679;-73
2022/11/26 00:26:57;;;;;;;;;;;;;;;4.88;82.25;101271.13;5351571;32;35218;-74
2022/11/26 00:29:59;;;;;;;;;;;;;;;4.95;82.68;101268.50;5343688;32;36026;-63
2022/11/26 00:33:01;;;;;;;;;;;;;;;4.80;82.90;101264.22;5346016;32;45924;-72
2022/11/26 00:36:08;;;;;;;;;;;;;;;4.89;83.06;101257.25;5361852;32;34430;-73
2022/11/26 00:39:18;;;;;;;;;;;;;;;4.72;84.10;101259.03;5328116;32;34382;-64
2022/11/26 00:42:20;;;;;;;;;;;;;;;5.04;83.65;101260.69;5339640;32;35165;-74
2022/11/26 00:45:23;;;;;;;;;;;;;;;5.21;80.79;101258.03;5339803;32;35342;-74
2022/11/26 00:48:25;;;;;;;;;;;;;;;6.41;76.61;101261.75;5364107;32;35291;-71
2022/11/26 00:51:27;;;;;;;;;;;;;;;6.18;75.61;101262.78;5381277;32;34770;-73
2022/11/26 00:54:29;;;;;;;;;;;;;;;5.03;81.00;101265.03;5350175;32;34622;-72
2022/11/26 00:57:31;;;;;;;;;;;;;;;4.94;82.83;101267.66;5356974;32;35431;-64
2022/11/26 01:00:33;;;;;;;;;;;;;;;4.98;82.07;101278.94;5346925;32;35611;-62
2022/11/26 01:03:35;;;;;;;;;;;;;;;5.20;79.75;101264.13;5347016;32;35005;-73
2022/11/26 01:06:41;;;;;;;;;;;;;;;5.47;80.22;101282.25;5348366;32;34896;-73
2022/11/26 01:09:43;;;;;;;;;;;;;;;6.22;78.60;101277.53;5344935;32;34427;-62
2022/11/26 01:12:45;;;;;;;;;;;;;;;6.48;75.55;101272.13;5348740;32;35588;-74
2022/11/26 01:15:47;;;;;;;;;;;;;;;5.84;77.36;101267.31;5332895;32;35959;-73
2022/11/26 01:18:50;;;;;;;;;;;;;;;5.62;76.94;101270.91;5335659;32;35168;-62
2022/11/26 01:21:52;;;;;;;;;;;;;;;5.29;80.40;101275.41;5323267;32;35103;-71
2022/11/26 01:24:54;;;;;;;;;;;;;;;5.31;80.30;101271.03;5345510;32;34311;-73
2022/11/26 01:27:56;;;;;;;;;;;;;;;5.33;80.33;101264.06;5348697;32;35854;-74
2022/11/26 01:30:57;;;;;;;;;;;;;;;5.14;83.29;101270.22;5345417;32;35419;-63
2022/11/26 01:33:59;;;;;;;;;;;;;;;5.27;82.24;101282.31;5361725;32;34306;-62
2022/11/26 01:37:01;;;;;;;;;;;;;;;6.56;75.08;101279.88;5341662;32;44249;-73
2022/11/26 01:40:05;;;;;;;;;;;;;;;5.59;79.02;101284.81;5342924;32;34609;-62
2022/11/26 01:43:10;;;;;;;;;;;;;;;5.23;81.36;101285.84;5345660;32;34668;-74
2022/11/26 01:46:14;;;;;;;;;;;;;;;5.19;82.64;101283.22;5376055;32;35598;-62
2022/11/26 01:49:17;;;;;;;;;;;;;;;5.72;80.52;101265.62;5356100;32;34361;-73
2022/11/26 01:52:22;;;;;;;;;;;;;;;6.27;75.50;101282.75;5364828;32;35548;-63
2022/11/26 01:55:25;;;;;;;;;;;;;;;7.00;72.79;101281.22;5380454;32;35530;-63
2022/11/26 01:58:36;;;;;;;;;;;;;;;5.61;77.70;101284.84;5334244;32;34597;-71
2022/11/26 02:01:40;;;;;;;;;;;;;;;5.36;79.09;101287.53;5361436;32;37756;-63
2022/11/26 02:04:46;;;;;;;;;;;;;;;6.22;77.26;101264.47;5333549;32;34743;-62
2022/11/26 02:07:48;;;;;;;;;;;;;;;5.43;78.69;101281.41;5334946;32;35303;-73
2022/11/26 02:10:50;;;;;;;;;;;;;;;5.00;83.18;101283.28;5364170;32;34433;-63
2022/11/26 02:13:57;;;;;;;;;;;;;;;5.47;79.29;101284.87;5333112;32;35605;-63
2022/11/26 02:16:59;;;;;;;;;;;;;;;5.05;81.06;101285.88;5362440;32;34689;-63
2022/11/26 02:20:07;;;;;;;;;;;;;;;5.39;81.08;101287.50;5326739;32;34085;-72
2022/11/26 02:23:24;;;;;;;;;;;;;;;5.33;82.45;101284.91;5361690;32;35361;-74
2022/11/26 02:26:44;;;;;;;;;;;;;;;5.26;80.96;101292.78;5357132;32;35325;-62
2022/11/26 02:29:59;;;;;;;;;;;;;;;5.64;79.84;101288.28;5333167;32;34629;-73
2022/11/26 02:33:04;;;;;;;;;;;;;;;5.02;81.81;101298.91;5348682;32;47986;-63
2022/11/26 02:36:11;;;;;;;;;;;;;;;4.44;84.24;101305.00;5332986;32;35513;-73
2022/11/26 02:39:14;;;;;;;;;;;;;;;4.56;86.96;101301.53;5339496;32;34366;-63
2022/11/26 02:42:23;;;;;;;;;;;;;;;4.51;86.02;101303.31;5360719;32;34988;-62
2022/11/26 02:45:27;;;;;;;;;;;;;;;4.74;86.32;101304.16;5366338;32;34845;-74
2022/11/26 02:48:30;;;;;;;;;;;;;;;4.91;84.31;101301.53;5367603;32;34133;-63
2022/11/26 02:51:32;;;;;;;;;;;;;;;4.48;85.61;101311.97;5366085;32;46430;-62
2022/11/26 02:54:36;;;;;;;;;;;;;;;4.86;83.67;101308.47;5367869;32;34799;-62
2022/11/26 02:57:41;;;;;;;;;;;;;;;5.14;83.09;101317.12;5364804;32;35123;-62
2022/11/26 03:00:42;;;;;;;;;;;;;;;5.51;81.62;101310.06;5370175;32;35605;-73
2022/11/26 03:03:46;;;;;;;;;;;;;;;4.42;84.77;101324.97;5356825;32;37393;-62
2022/11/26 03:06:48;;;;;;;;;;;;;;;4.90;82.40;101320.66;5348077;32;35566;-73
2022/11/26 03:09:50;;;;;;;;;;;;;;;4.87;82.61;101328.44;5363194;32;35668;-63
2022/11/26 03:12:51;;;;;;;;;;;;;;;5.22;81.53;101319.72;5346712;32;34814;-64
2022/11/26 03:15:53;;;;;;;;;;;;;;;5.13;82.59;101323.19;5362271;32;35433;-73
2022/11/26 03:18:55;;;;;;;;;;;;;;;5.86;79.19;101320.38;5333248;32;34574;-72
2022/11/26 03:21:57;;;;;;;;;;;;;;;5.90;77.13;101322.06;5325902;32;35157;-63
2022/11/26 03:24:59;;;;;;;;;;;;;;;5.50;77.85;101320.50;5361405;32;36005;-63
2022/11/26 03:28:01;;;;;;;;;;;;;;;4.80;82.74;101330.19;5346636;32;42921;-73
2022/11/26 03:31:03;;;;;;;;;;;;;;;4.46;84.97;101320.66;5363593;32;34666;-63
2022/11/26 03:34:04;;;;;;;;;;;;;;;4.60;84.23;101322.38;5346655;32;34358;-75
2022/11/26 03:37:06;;;;;;;;;;;;;;;4.68;84.73;101331.94;5359529;32;35411;-74
2022/11/26 03:40:08;;;;;;;;;;;;;;;6.44;76.19;101332.22;5343813;32;35085;-62
2022/11/26 03:43:10;;;;;;;;;;;;;;;6.10;76.17;101332.44;5349463;32;35084;-75
2022/11/26 03:46:12;;;;;;;;;;;;;;;5.79;78.29;101342.13;5366734;32;35043;-72
2022/11/26 03:49:14;;;;;;;;;;;;;;;5.66;77.03;101345.66;5364700;32;35130;-63
2022/11/26 03:52:16;;;;;;;;;;;;;;;5.20;79.48;101357.94;5368303;32;35080;-63
2022/11/26 03:55:18;;;;;;;;;;;;;;;4.76;82.31;101359.69;5365535;32;35582;-74
2022/11/26 03:58:20;;;;;;;;;;;;;;;5.12;82.04;101360.56;5381238;32;35015;-63
2022/11/26 04:01:21;;;;;;;;;;;;;;;5.19;79.86;101364.03;5366316;32;35573;-72
2022/11/26 04:04:23;;;;;;;;;;;;;;;4.25;85.26;101364.00;5356270;32;34408;-73
2022/11/26 04:07:25;;;;;;;;;;;;;;;5.24;82.13;101364.91;5361433;32;34764;-62
2022/11/26 04:10:27;;;;;;;;;;;;;;;5.29;81.44;101361.41;5347473;32;35045;-74
2022/11/26 04:13:29;;;;;;;;;;;;;;;5.81;79.94;101369.09;5362593;32;34915;-64
2022/11/26 04:16:31;;;;;;;;;;;;;;;5.74;77.55;101367.38;5346430;32;42803;-63
2022/11/26 04:19:33;;;;;;;;;;;;;;;4.04;86.33;101374.31;5344494;32;34262;-62
2022/11/26 04:22:35;;;;;;;;;;;;;;;5.06;81.67;101369.25;5342273;32;35479;-65
2022/11/26 04:25:36;;;;;;;;;;;;;;;4.67;83.58;101364.06;5334441;32;34741;-74
2022/11/26 04:28:39;;;;;;;;;;;;;;;4.36;84.00;101379.63;5347377;32;34595;-73
2022/11/26 04:31:40;;;;;;;;;;;;;;;4.44;84.75;101383.09;5333873;32;34955;-74
2022/11/26 04:34:42;;;;;;;;;;;;;;;4.76;81.71;101371.84;5362611;32;34809;-63
2022/11/26 04:37:44;;;;;;;;;;;;;;;4.66;84.30;101380.53;5343732;32;35102;-73
2022/11/26 04:40:46;;;;;;;;;;;;;;;5.29;80.24;101386.63;5359718;32;35130;-63
2022/11/26 04:43:48;;;;;;;;;;;;;;;4.16;84.59;101397.78;5345389;32;36107;-62
2022/11/26 04:46:50;;;;;;;;;;;;;;;4.69;84.55;101394.41;5346712;32;35212;-63
2022/11/26 04:49:52;;;;;;;;;;;;;;;5.27;79.75;101394.41;5362144;32;35370;-74
2022/11/26 04:52:53;;;;;;;;;;;;;;;4.70;80.17;101396.19;5347683;32;35549;-73
2022/11/26 04:55:55;;;;;;;;;;;;;;;5.79;77.86;101398.63;5362697;32;34905;-74
2022/11/26 04:58:57;;;;;;;;;;;;;;;4.47;81.39;101408.28;5346358;32;35932;-74
2022/11/26 05:01:59;;;;;;;;;;;;;;;4.66;81.87;101417.00;5362877;32;35230;-73
2022/11/26 05:05:01;;;;;;;;;;;;;;;4.70;82.47;101427.44;5345459;32;37966;-74
2022/11/26 05:08:03;;;;;;;;;;;;;;;4.45;83.41;101426.50;5345167;32;35511;-73
2022/11/26 05:11:05;;;;;;;;;;;;;;;4.29;84.72;101427.31;5362964;32;35976;-74
2022/11/26 05:14:07;;;;;;;;;;;;;;;4.71;83.45;101429.16;5345339;32;34414;-74
2022/11/26 05:17:08;;;;;;;;;;;;;;;5.70;78.98;101430.84;5362160;32;35620;-62
2022/11/26 05:20:10;;;;;;;;;;;;;;;5.88;75.94;101427.31;5325433;32;34800;-72
2022/11/26 05:23:12;;;;;;;;;;;;;;;5.97;76.00;101435.16;5360732;32;34964;-62
2022/11/26 05:26:14;;;;;;;;;;;;;;;5.77;76.24;101427.34;5347151;32;35489;-62
2022/11/26 05:29:16;;;;;;;;;;;;;;;5.94;76.73;101428.22;5345360;32;35506;-75
2022/11/26 05:32:18;;;;;;;;;;;;;;;6.04;76.19;101436.00;5347875;32;35011;-73
2022/11/26 05:35:20;;;;;;;;;;;;;;;5.02;78.15;101429.16;5346119;32;35532;-74
2022/11/26 05:38:22;;;;;;;;;;;;;;;5.64;79.09;101441.28;5356678;32;35035;-73
2022/11/26 05:41:24;;;;;;;;;;;;;;;6.47;72.78;101434.91;5345188;32;35830;-70
2022/11/26 05:44:26;;;;;;;;;;;;;;;4.82;79.78;101448.25;5365456;32;34291;-72
2022/11/26 05:47:28;;;;;;;;;;;;;;;5.73;75.62;101446.47;5364544;32;35637;-63
2022/11/26 05:50:30;;;;;;;;;;;;;;;4.96;79.45;101456.12;5364980;32;35517;-61
2022/11/26 05:53:32;;;;;;;;;;;;;;;4.95;79.68;101450.87;5365516;32;44759;-72
2022/11/26 05:56:34;;;;;;;;;;;;;;;4.58;82.02;101466.47;5363301;32;34368;-73
2022/11/26 05:59:36;;;;;;;;;;;;;;;5.06;81.05;101464.78;5379378;32;34944;-73
2022/11/26 06:02:38;;;;;;;;;;;;;;;6.18;76.05;101463.78;5363400;32;35394;-63
2022/11/26 06:05:40;;;;;;;;;;;;;;;5.50;76.60;101476.97;5348050;32;35722;-73
2022/11/26 06:08:42;;;;;;;;;;;;;;;4.88;80.85;101474.31;5345307;32;35710;-61
2022/11/26 06:11:44;;;;;;;;;;;;;;;5.86;77.14;101473.41;5345868;32;34933;-74
2022/11/26 06:14:46;;;;;;;;;;;;;;;6.35;73.97;101474.16;5361199;32;34717;-61
2022/11/26 06:17:48;;;;;;;;;;;;;;;5.03;78.76;101483.06;5331248;32;35242;-61
2022/11/26 06:20:49;;;;;;;;;;;;;;;5.12;78.01;101475.22;5339411;32;35676;-63
2022/11/26 06:23:51;;;;;;;;;;;;;;;4.72;81.16;101488.19;5344158;32;35213;-62
2022/11/26 06:27:00;;;;;;;;;;;;;;;4.70;81.99;101486.44;5359617;32;34193;-73
2022/11/26 06:30:05;;;;;;;;;;;;;;;5.15;80.23;101491.75;5346390;32;44396;-71
2022/11/26 06:33:07;;;;;;;;;;;;;;;5.09;81.08;101485.66;5317965;32;34259;-63
2022/11/26 06:36:09;;;;;;;;;;;;;;;4.98;81.36;101497.81;5359969;32;35469;-63
2022/11/26 06:39:11;;;;;;;;;;;;;;;4.90;81.01;101497.78;5328272;32;34298;-63
2022/11/26 06:42:13;;;;;;;;;;;;;;;5.57;78.72;101502.16;5371869;32;35362;-73
2022/11/26 06:45:15;;;;;;;;;;;;;;;4.77;79.75;101507.31;5363605;32;35109;-74
2022/11/26 06:48:17;;;;;;;;;;;;;;;4.73;81.47;101508.16;5375453;32;35414;-63
2022/11/26 06:51:26;;;;;;;;;;;;;;;5.14;79.61;101503.00;5370212;32;34787;-73
2022/11/26 06:54:28;;;;;;;;;;;;;;;5.80;77.64;101500.41;5362392;32;34848;-63
2022/11/26 06:57:30;;;;;;;;;;;;;;;5.41;78.56;101503.91;5380148;32;34083;-74
2022/11/26 07:00:32;;;;;;;;;;;;;;;5.48;79.27;101499.56;5365740;32;45398;-73
2022/11/26 07:03:34;;;;;;;;;;;;;;;6.10;77.16;101506.44;5376915;32;35491;-73
2022/11/26 07:06:35;;;;;;;;;;;;;;;6.27;75.60;101515.09;5347093;32;35186;-62
2022/11/26 07:09:38;;;;;;;;;;;;;;;6.08;73.68;101514.28;5355236;32;35778;-63
2022/11/26 07:12:40;;;;;;;;;;;;;;;6.65;71.21;101509.72;5354552;32;35304;-72
2022/11/26 07:15:41;;;;;;;;;;;;;;;5.91;73.89;101523.88;5346538;32;34384;-62
2022/11/26 07:18:47;;;;;;;;;;;;;;;5.08;78.62;101523.84;5351843;32;35069;-73
2022/11/26 07:21:49;;;;;;;;;;;;;;;5.04;79.72;101536.91;5336657;32;35137;-61
2022/11/26 07:24:51;;;;;;;;;;;;;;;4.96;80.28;101528.16;5361558;32;35622;-74
2022/11/26 07:27:53;;;;;;;;;;;;;;;6.32;77.23;101521.19;5345841;32;35822;-63
2022/11/26 07:30:58;;;;;;;;;;;;;;;6.51;74.11;101528.06;5354562;32;35360;-71
2022/11/26 07:34:00;;;;;;;;;;;;;;;5.80;76.06;101520.41;5358339;32;35452;-63
2022/11/26 07:37:02;;;;;;;;;;;;;;;6.21;76.67;101522.94;5343237;32;46896;-73
2022/11/26 07:40:04;;;;;;;;;;;;;;;6.47;75.29;101521.09;5360080;32;34480;-63
2022/11/26 07:43:06;;;;;;;;;;;;;;;6.45;74.01;101529.84;5358979;32;35638;-63
2022/11/26 07:46:09;;;;;;;;;;;;;;;6.58;74.90;101528.03;5382371;32;34822;-62
2022/11/26 07:49:11;;;;;;;;;;;;;;;6.36;74.53;101530.72;5364658;32;35676;-72
2022/11/26 07:52:13;;;;;;;;;;;;;;;6.40;75.50;101518.53;5370012;32;35045;-62
2022/11/26 07:55:15;;;;;;;;;;;;;;;6.48;74.21;101522.84;5373861;32;35360;-74
2022/11/26 07:58:17;;;;;;;;;;;;;;;6.88;73.81;101530.47;5364467;32;34646;-63
2022/11/26 08:01:19;;;;;;;;;;;;;;;6.84;72.27;101536.62;5381949;32;35617;-63
2022/11/26 08:04:21;;;;;;;;;;;;;;;7.25;72.21;101528.50;5354782;32;35938;-64
2022/11/26 08:07:23;;;;;;;;;;;;;;;6.66;72.89;101548.03;5357914;32;34507;-62
2022/11/26 08:10:30;;;;;;;;;;;;;;;7.38;71.35;101544.09;5365286;32;34298;-64
2022/11/26 08:13:32;;;;;;;;;;;;;;;7.38;69.96;101551.94;5365649;32;44706;-63
2022/11/26 08:16:34;;;;;;;;;;;;;;;7.69;69.57;101549.97;5376856;32;34479;-75
2022/11/26 08:19:36;;;;;;;;;;;;;;;7.12;72.01;101554.75;5345573;32;34323;-63
2022/11/26 08:22:38;;;;;;;;;;;;;;;6.70;74.12;101556.72;5363048;32;35811;-62
2022/11/26 08:25:40;;;;;;;;;;;;;;;8.17;68.61;101551.22;5366010;32;34677;-62
2022/11/26 08:29:02;;;;;;;;;;;;;;;8.17;67.74;101542.50;5376052;32;45751;-74
2022/11/26 08:32:04;;;;;;;;;;;;;;;7.43;72.63;101543.19;5369541;32;34279;-73
2022/11/26 08:35:06;;;;;;;;;;;;;;;8.19;68.13;101546.84;5365598;32;35020;-63
2022/11/26 08:38:07;;;;;;;;;;;;;;;7.57;70.69;101556.16;5377897;32;34898;-63
2022/11/26 08:41:10;;;;;;;;;;;;;;;7.65;71.82;101577.88;5359974;32;34916;-74
2022/11/26 08:44:12;;;;;;;;;;;;;;;6.90;72.84;101588.84;5374957;32;35519;-74
2022/11/26 08:47:14;;;;;;;;;;;;;;;7.70;72.66;101583.09;5364093;32;34310;-74
2022/11/26 08:50:16;;;;;;;;;;;;;;;7.75;71.92;101579.56;5375141;32;35532;-73
2022/11/26 08:53:18;;;;;;;;;;;;;;;7.29;74.01;101584.28;5370994;32;34469;-62
2022/11/26 08:56:20;;;;;;;;;;;;;;;7.94;68.99;101567.19;5360165;32;35366;-72
2022/11/26 08:59:23;;;;;;;;;;;;;;;7.21;71.37;101589.56;5380381;32;34843;-63
2022/11/26 09:02:24;;;;;;;;;;;;;;;7.18;74.92;101588.69;5364061;32;35081;-62
2022/11/26 09:05:26;;;;;;;;;;;;;;;7.15;74.78;101593.91;5365385;32;34976;-62
2022/11/26 09:08:30;;;;;;;;;;;;;;;7.21;74.14;101594.78;5344821;32;35130;-63
2022/11/26 09:11:34;;;;;;;;;;;;;;;7.07;74.58;101599.19;5353773;32;44399;-63
2022/11/26 09:14:37;;;;;;;;;;;;;;;7.76;70.46;101593.50;5341446;32;35454;-74
2022/11/26 09:17:39;;;;;;;;;;;;;;;6.86;73.36;101610.63;5345354;32;35668;-63
2022/11/26 09:20:41;;;;;;;;;;;;;;;7.99;70.04;101606.41;5340711;32;34920;-64
2022/11/26 09:23:43;;;;;;;;;;;;;;;8.32;68.58;101600.84;5343170;32;35505;-63
2022/11/26 09:26:47;;;;;;;;;;;;;;;7.17;72.42;101613.09;5363669;32;36311;-62
2022/11/26 09:29:49;;;;;;;;;;;;;;;7.35;72.14;101610.38;5346076;32;35054;-64
2022/11/26 09:32:51;;;;;;;;;;;;;;;8.07;69.83;101599.34;5351134;32;35268;-75
2022/11/26 09:35:52;;;;;;;;;;;;;;;7.61;71.06;101607.59;5343840;32;36692;-73
2022/11/26 09:38:55;;;;;;;;;;;;;;;7.31;73.35;101613.88;5341255;32;36031;-64
2022/11/26 09:42:07;;;;;;;;;;;;;;;7.42;74.29;101609.47;5340530;32;34652;-65
2022/11/26 09:45:11;;;;;;;;;;;;;;;7.73;71.07;101614.44;5331145;32;44500;-63
2022/11/26 09:48:14;;;;;;;;;;;;;;;8.01;71.03;101621.22;5361008;32;34314;-73
2022/11/26 09:51:19;;;;;;;;;;;;;;;7.83;71.25;101609.16;5346409;32;34545;-75
2022/11/26 09:54:21;;;;;;;;;;;;;;;8.62;68.97;101612.75;5342867;32;34324;-62
2022/11/26 09:57:33;;;;;;;;;;;;;;;8.37;69.49;101616.50;5343943;32;34934;-63
2022/11/26 10:00:48;;;;;;;;;;;;;;;8.11;69.91;101615.03;5344832;32;45130;-63
2022/11/26 10:03:50;;;;;;;;;;;;;;;7.41;71.11;101612.09;5342610;32;35499;-62
2022/11/26 10:07:11;;;;;;;;;;;;;;;8.44;66.15;101612.06;5324924;32;35838;-63
2022/11/26 10:10:16;;;;;;;;;;;;;;;7.51;70.97;101605.91;5327782;32;34384;-64
2022/11/26 10:13:19;;;;;;;;;;;;;;;8.31;68.64;101609.59;5361023;32;34657;-63
2022/11/26 10:16:29;;;;;;;;;;;;;;;8.17;69.19;101605.34;5327734;32;35225;-73
2022/11/26 10:19:43;;;;;;;;;;;;;;;9.10;66.70;101604.31;5343966;32;33950;-71
2022/11/26 10:22:48;;;;;;;;;;;;;;;7.91;67.92;101605.59;5340645;32;34491;-63
2022/11/26 10:26:04;;;;;;;;;;;;;;;7.96;69.02;101615.12;5352065;32;35541;-72
2022/11/26 10:29:24;;;;;;;;;;;;;;;9.55;63.34;101610.63;5348236;32;44847;-72
2022/11/26 10:32:29;;;;;;;;;;;;;;;9.55;61.84;101609.78;5346043;32;35484;-74
2022/11/26 10:35:32;;;;;;;;;;;;;;;9.59;62.78;101603.56;5350248;32;45289;-63
2022/11/26 10:38:33;;;;;;;;;;;;;;;8.79;63.85;101620.41;5340167;32;35401;-73
2022/11/26 10:41:36;;;;;;;;;;;;;;;8.94;63.88;101619.34;5355229;32;35799;-63
2022/11/26 10:44:38;;;;;;;;;;;;;;;9.92;60.36;101612.69;5358657;32;34352;-63
2022/11/26 10:47:41;;;;;;;;;;;;;;;9.78;61.62;101598.00;5365153;32;34341;-74
2022/11/26 10:50:59;;;;;;;;;;;;;;;10.68;58.49;101599.87;5382818;32;34377;-75
2022/11/26 10:54:02;;;;;;;;;;;;;;;10.02;59.82;101595.84;5363779;32;43285;-73
2022/11/26 10:57:05;;;;;;;;;;;;;;;10.29;59.68;101600.63;5356266;32;35020;-63
2022/11/26 11:00:23;;;;;;;;;;;;;;;9.53;61.98;101607.16;5351173;32;34248;-75
2022/11/26 11:03:27;;;;;;;;;;;;;;;9.58;61.41;101609.72;5346316;32;34911;-74
2022/11/26 11:06:49;;;;;;;;;;;;;;;10.15;60.46;101596.50;5342016;32;35055;-63
2022/11/26 11:09:52;;;;;;;;;;;;;;;9.53;61.79;101607.16;5345347;32;34815;-73
2022/11/26 11:13:13;;;;;;;;;;;;;;;10.52;59.78;101607.22;5348736;32;35758;-72
2022/11/26 11:16:24;;;;;;;;;;;;;;;10.01;60.40;101594.12;5350232;32;34985;-62
2022/11/26 11:19:26;;;;;;;;;;;;;;;10.41;59.27;101601.31;5316558;32;35871;-64
2022/11/26 11:22:27;;;;;;;;;;;;;;;10.91;58.43;101596.81;5344321;32;34193;-62
2022/11/26 11:25:30;;;;;;;;;;;;;;;11.16;57.93;101586.59;5347000;32;34477;-63
2022/11/26 11:28:33;;;;;;;;;;;;;;;8.58;65.32;101591.84;5349056;32;44596;-74
2022/11/26 11:31:43;;;;;;;;;;;;;;;8.55;66.64;101597.97;5346275;32;35550;-77
2022/11/26 11:34:46;;;;;;;;;;;;;;;9.12;65.38;101579.78;5352335;32;35674;-75
2022/11/26 11:37:48;;;;;;;;;;;;;;;8.78;66.17;101589.00;5340993;32;35226;-74
2022/11/26 11:40:51;;;;;;;;;;;;;;;9.19;65.91;101588.41;5329313;32;35019;-63
2022/11/26 11:43:58;;;;;;;;;;;;;;;9.75;63.98;101584.06;5362565;32;34920;-73
2022/11/26 11:47:04;;;;;;;;;;;;;;;11.13;59.27;101582.25;5345803;32;35181;-62
2022/11/26 11:50:21;;;;;;;;;;;;;;;10.72;59.29;101573.50;5349118;32;44612;-63
2022/11/26 11:53:43;;;;;;;;;;;;;;;10.76;59.93;101574.31;5349690;32;34997;-64
2022/11/26 11:56:48;;;;;;;;;;;;;;;10.33;61.61;101577.81;5346665;32;34385;-73
2022/11/26 12:00:14;;;;;;;;;;;;;;;10.93;59.99;101581.84;5363697;32;35957;-75
2022/11/26 12:03:34;;;;;;;;;;;;;;;10.62;60.95;101577.22;5345535;32;34459;-75
2022/11/26 12:06:38;;;;;;;;;;;;;;;9.99;63.77;101577.53;5349844;32;45567;-64
2022/11/26 12:09:46;;;;;;;;;;;;;;;10.25;61.93;101567.44;5360344;32;34430;-73
2022/11/26 12:12:49;;;;;;;;;;;;;;;10.58;61.76;101575.56;5331716;32;35242;-63
2022/11/26 12:15:52;;;;;;;;;;;;;;;10.49;62.59;101570.47;5348812;32;34491;-74
2022/11/26 12:19:13;;;;;;;;;;;;;;;11.19;60.61;101563.72;5330694;32;34364;-72
2022/11/26 12:22:23;;;;;;;;;;;;;;;12.07;58.28;101570.34;5349118;32;34813;-63
2022/11/26 12:25:30;;;;;;;;;;;;;;;10.97;60.73;101570.38;5356716;32;35200;-64
2022/11/26 12:28:39;;;;;;;;;;;;;;;11.32;60.52;101575.69;5331747;32;44550;-75
2022/11/26 12:31:43;;;;;;;;;;;;;;;12.01;57.76;101573.16;5349422;32;36256;-62
2022/11/26 12:34:46;;;;;;;;;;;;;;;11.74;58.01;101572.06;5330957;32;35684;-62
2022/11/26 12:37:49;;;;;;;;;;;;;;;10.73;62.03;101572.59;5345522;32;35254;-64
2022/11/26 12:40:59;;;;;;;;;;;;;;;10.26;63.13;101581.44;5329448;32;35601;-63
2022/11/26 12:44:04;;;;;;;;;;;;;;;10.35;63.25;101583.03;5345627;32;36209;-74
2022/11/26 12:47:25;;;;;;;;;;;;;;;10.02;64.17;101575.69;5348482;32;45184;-73
2022/11/26 12:50:33;;;;;;;;;;;;;;;9.93;64.31;101583.75;5346901;32;34960;-74
2022/11/26 12:53:39;;;;;;;;;;;;;;;10.27;64.09;101589.28;5361590;32;46829;-73
2022/11/26 12:56:48;;;;;;;;;;;;;;;10.61;62.77;101578.12;5346002;32;36064;-64
2022/11/26 12:59:51;;;;;;;;;;;;;;;10.32;62.70;101580.47;5331374;32;34843;-62
2022/11/26 13:02:53;;;;;;;;;;;;;;;10.03;63.92;101571.31;5348546;32;34901;-75
2022/11/26 13:06:04;;;;;;;;;;;;;;;10.67;62.48;101566.59;5331976;32;35542;-64
2022/11/26 13:09:27;;;;;;;;;;;;;;;11.60;58.52;101564.50;5362302;32;44202;-63
2022/11/26 13:12:29;;;;;;;;;;;;;;;10.57;61.73;101561.56;5330839;32;34341;-64
2022/11/26 13:15:36;;;;;;;;;;;;;;;10.41;62.16;101567.12;5350820;32;44774;-63
2022/11/26 13:18:46;;;;;;;;;;;;;;;11.10;60.54;101574.44;5322672;32;937173;-74
2022/11/26 13:21:54;;;;;;;;;;;;;;;10.89;59.89;101561.78;5334773;32;35620;-73
2022/11/26 13:25:02;;;;;;;;;;;;;;;10.89;59.49;101567.03;5363231;32;35379;-63
2022/11/26 13:28:23;;;;;;;;;;;;;;;11.24;59.33;101572.37;5343541;32;44608;-74
2022/11/26 13:31:28;;;;;;;;;;;;;;;11.34;58.86;101570.41;5350161;32;34319;-63
2022/11/26 13:34:42;;;;;;;;;;;;;;;11.45;57.84;101572.75;5361221;32;34629;-74
2022/11/26 13:37:44;;;;;;;;;;;;;;;10.15;62.25;101578.97;5341173;32;34385;-74
2022/11/26 13:40:49;;;;;;;;;;;;;;;10.90;59.77;101579.28;5359955;32;34810;-74
2022/11/26 13:44:14;;;;;;;;;;;;;;;10.05;62.70;101582.69;5344620;32;34258;-64
2022/11/26 13:47:18;;;;;;;;;;;;;;;11.30;59.33;101579.25;5369785;32;35527;-74
2022/11/26 13:50:22;;;;;;;;;;;;;;;11.82;57.13;101580.66;5375934;32;33078;-63
2022/11/26 13:53:30;;;;;;;;;;;;;;;11.54;58.46;101593.63;5349292;32;36555;-75
2022/11/26 13:56:32;;;;;;;;;;;;;;;11.80;57.81;101590.34;5376888;32;44797;-63
2022/11/26 13:59:35;;;;;;;;;;;;;;;9.95;63.57;101596.84;5348692;32;35418;-75
2022/11/26 14:02:41;;;;;;;;;;;;;;;9.73;66.47;101597.22;5379671;32;35416;-65
2022/11/26 14:05:49;;;;;;;;;;;;;;;10.48;63.99;101603.78;5335428;32;35235;-62
2022/11/26 14:08:51;;;;;;;;;;;;;;;10.03;65.91;101602.84;5363531;32;35097;-73
2022/11/26 14:11:55;;;;;;;;;;;;;;;10.66;64.28;101599.06;5381346;32;34376;-74
2022/11/26 14:14:57;;;;;;;;;;;;;;;9.56;67.78;101612.38;5364164;32;35542;-74
2022/11/26 14:17:59;;;;;;;;;;;;;;;10.14;66.39;101597.41;5380562;32;35160;-76
2022/11/26 14:21:01;;;;;;;;;;;;;;;10.63;64.73;101602.63;5340215;32;37873;-73
2022/11/26 14:24:03;;;;;;;;;;;;;;;9.92;66.41;101599.56;5374715;32;34522;-63
2022/11/26 14:27:04;;;;;;;;;;;;;;;10.93;63.58;101606.37;5366999;32;35111;-64
2022/11/26 14:30:06;;;;;;;;;;;;;;;9.60;66.81;101600.06;5363701;32;35563;-63
2022/11/26 14:33:10;;;;;;;;;;;;;;;9.92;67.09;101594.31;5379663;32;34435;-64
2022/11/26 14:36:21;;;;;;;;;;;;;;;9.37;69.36;101590.78;5362151;32;34553;-72
2022/11/26 14:39:23;;;;;;;;;;;;;;;10.47;65.38;101588.03;5375822;32;35911;-74
2022/11/26 14:42:26;;;;;;;;;;;;;;;10.21;66.33;101597.25;5352082;32;35053;-75
2022/11/26 14:45:27;;;;;;;;;;;;;;;10.43;64.83;101602.13;5351981;32;35336;-64
2022/11/26 14:48:30;;;;;;;;;;;;;;;10.36;65.47;101588.25;5351708;32;34862;-64
2022/11/26 14:51:32;;;;;;;;;;;;;;;10.80;63.85;101597.88;5344276;32;44664;-63
2022/11/26 14:54:34;;;;;;;;;;;;;;;9.35;69.06;101602.19;5347906;32;35659;-62
2022/11/26 14:57:43;;;;;;;;;;;;;;;10.34;65.54;101597.06;5329164;32;34937;-63
2022/11/26 15:00:59;;;;;;;;;;;;;;;9.67;68.24;101604.34;5346871;32;35254;-75
2022/11/26 15:04:03;;;;;;;;;;;;;;;9.70;67.67;101610.38;5330850;32;44228;-63
2022/11/26 15:07:06;;;;;;;;;;;;;;;10.30;64.99;101612.91;5337183;32;35507;-63
2022/11/26 15:10:10;;;;;;;;;;;;;;;9.61;67.35;101614.94;5381872;32;34798;-62
2022/11/26 15:13:13;;;;;;;;;;;;;;;10.50;64.83;101624.81;5363299;32;34451;-73
2022/11/26 15:16:41;;;;;;;;;;;;;;;10.10;65.99;101624.59;5383148;32;35221;-64
2022/11/26 15:19:43;;;;;;;;;;;;;;;9.53;67.88;101643.87;5329582;32;35623;-63
2022/11/26 15:22:49;;;;;;;;;;;;;;;9.51;66.79;101629.94;5352101;32;35498;-75
2022/11/26 15:25:53;;;;;;;;;;;;;;;10.02;65.06;101625.59;5364702;32;35552;-75
2022/11/26 15:28:55;;;;;;;;;;;;;;;9.26;67.27;101628.56;5345997;32;35416;-62
2022/11/26 15:31:57;;;;;;;;;;;;;;;9.38;67.00;101624.00;5350217;32;35071;-64
2022/11/26 15:34:59;;;;;;;;;;;;;;;8.86;70.81;101639.56;5346878;32;34514;-64
2022/11/26 15:38:05;;;;;;;;;;;;;;;9.93;66.29;101627.53;5344594;32;43947;-64
2022/11/26 15:41:07;;;;;;;;;;;;;;;10.20;64.43;101621.81;5330993;32;35616;-76
2022/11/26 15:44:18;;;;;;;;;;;;;;;10.49;63.40;101630.94;5357637;32;34947;-63
2022/11/26 15:47:21;;;;;;;;;;;;;;;8.84;69.43;101649.22;5369168;32;35419;-62
2022/11/26 15:50:23;;;;;;;;;;;;;;;9.75;65.61;101642.69;5364348;32;35265;-64
2022/11/26 15:53:25;;;;;;;;;;;;;;;9.68;65.51;101635.81;5382647;32;35455;-65
2022/11/26 15:56:29;;;;;;;;;;;;;;;9.40;67.17;101651.09;5352047;32;35227;-73
2022/11/26 15:59:39;;;;;;;;;;;;;;;9.42;67.46;101636.19;5375520;32;43303;-64